Time;durP1;ratioP1;P1;durP2;ratioP2;P2;SDS_P1;SDS_P2;PMS_P1;PMS_P2;Temp;Humidity;BMP_temperature;BMP_pressure;BME280_temperature;BME280_humidity;BME280_pressure;Samples;Min_cycle;Max_cycle;Signal;HPM_P1;HPM_P2
2023/12/20 00:01:51;;;;;;;9.23;6.63;;;7.00;99.90;;;;;;6281088;22;20236;-83
2023/12/20 00:04:17;;;;;;;6.30;5.20;;;6.90;99.90;;;;;;6281333;22;20212;-84
2023/12/20 00:06:43;;;;;;;7.37;4.07;;;6.80;99.90;;;;;;6279965;22;20163;-83
2023/12/20 00:09:09;;;;;;;12.33;3.17;;;6.70;99.90;;;;;;6280640;22;20176;-83
2023/12/20 00:11:35;;;;;;;6.77;3.13;;;6.80;99.90;;;;;;6281619;22;20183;-82
2023/12/20 00:14:01;;;;;;;3.27;2.40;;;6.80;99.90;;;;;;6310817;22;20213;-83
2023/12/20 00:16:27;;;;;;;4.77;2.97;;;6.70;99.90;;;;;;6283222;22;20582;-84
2023/12/20 00:18:52;;;;;;;3.73;2.50;;;6.80;99.90;;;;;;6283103;22;20168;-84
2023/12/20 00:21:18;;;;;;;3.60;2.43;;;6.80;99.90;;;;;;6282003;22;20163;-84
2023/12/20 00:23:44;;;;;;;3.77;2.40;;;6.80;99.90;;;;;;6282089;22;20582;-83
2023/12/20 00:26:09;;;;;;;4.03;2.10;;;6.80;99.90;;;;;;6296335;22;20198;-82
2023/12/20 00:28:37;;;;;;;4.47;2.40;;;6.80;99.90;;;;;;6308992;22;20614;-84
2023/12/20 00:31:04;;;;;;;7.77;2.60;;;6.70;99.90;;;;;;6309185;22;20144;-83
2023/12/20 00:33:30;;;;;;;4.47;2.50;;;6.80;99.90;;;;;;6309621;22;20152;-83
2023/12/20 00:35:56;;;;;;;6.50;2.67;;;6.80;99.90;;;;;;6309816;22;20266;-83
2023/12/20 00:38:23;;;;;;;4.20;2.30;;;6.80;99.90;;;;;;6308651;22;20251;-83
2023/12/20 00:40:49;;;;;;;6.30;2.43;;;6.90;99.90;;;;;;6307751;22;20230;-83
2023/12/20 00:43:15;;;;;;;3.53;2.20;;;6.70;99.90;;;;;;6308181;22;20563;-83
2023/12/20 00:45:41;;;;;;;5.20;2.47;;;6.80;99.90;;;;;;6307400;22;20187;-83
2023/12/20 00:48:08;;;;;;;9.80;2.50;;;6.80;99.90;;;;;;6307891;22;20209;-83
2023/12/20 00:50:34;;;;;;;6.17;1.53;;;6.80;99.90;;;;;;6308673;22;20178;-82
2023/12/20 00:52:59;;;;;;;7.97;1.90;;;6.80;99.90;;;;;;6308573;22;20567;-84
2023/12/20 00:55:25;;;;;;;11.10;2.17;;;6.80;99.90;;;;;;6308281;22;20160;-82
2023/12/20 00:57:53;;;;;;;5.80;1.20;;;6.80;99.90;;;;;;6307598;22;20559;-84
2023/12/20 01:00:19;;;;;;;6.77;1.80;;;6.70;99.90;;;;;;6307567;22;20254;-84
2023/12/20 01:02:46;;;;;;;6.37;1.60;;;6.70;99.90;;;;;;6308095;22;20499;-83
2023/12/20 01:05:12;;;;;;;6.07;1.40;;;6.60;99.90;;;;;;6308230;22;20180;-83
2023/12/20 01:07:38;;;;;;;4.37;1.60;;;6.60;99.90;;;;;;6307948;22;20213;-83
2023/12/20 01:10:04;;;;;;;4.77;1.40;;;6.60;99.90;;;;;;6307220;22;20164;-83
2023/12/20 01:12:30;;;;;;;4.10;1.40;;;6.50;99.90;;;;;;6306699;22;20152;-82
2023/12/20 01:14:55;;;;;;;5.33;1.83;;;6.50;99.90;;;;;;6307596;22;20167;-83
2023/12/20 01:17:22;;;;;;;9.57;2.43;;;6.40;99.90;;;;;;6307839;22;20194;-84
2023/12/20 01:19:48;;;;;;;6.90;2.00;;;6.30;99.90;;;;;;6308041;22;20294;-86
2023/12/20 01:22:14;;;;;;;5.73;1.80;;;6.30;99.90;;;;;;6307856;22;20578;-83
2023/12/20 01:24:39;;;;;;;7.53;2.00;;;6.40;99.90;;;;;;6306660;22;20176;-82
2023/12/20 01:27:05;;;;;;;11.20;2.30;;;6.30;99.90;;;;;;6280942;22;20243;-82
2023/12/20 01:29:33;;;;;;;8.17;2.53;;;6.20;99.90;;;;;;6282625;22;20152;-83
2023/12/20 01:31:59;;;;;;;4.10;1.87;;;6.20;99.90;;;;;;6282296;22;20168;-82
2023/12/20 01:34:25;;;;;;;10.43;2.30;;;6.20;99.90;;;;;;6309093;22;20148;-83
2023/12/20 01:36:51;;;;;;;7.20;2.20;;;6.20;99.90;;;;;;6281208;22;20184;-82
2023/12/20 01:39:18;;;;;;;10.03;2.37;;;6.20;99.90;;;;;;6281248;22;20236;-82
2023/12/20 01:41:45;;;;;;;14.00;1.93;;;6.20;99.90;;;;;;6309104;22;20179;-83
2023/12/20 01:44:11;;;;;;;9.57;2.13;;;6.10;99.90;;;;;;6282166;22;20158;-82
2023/12/20 01:46:36;;;;;;;5.07;1.80;;;6.20;99.90;;;;;;6281966;22;20163;-83
2023/12/20 01:49:08;;;;;;;8.47;1.73;;;6.20;99.90;;;;;;6281059;22;20153;-83
2023/12/20 01:51:35;;;;;;;7.40;2.00;;;6.10;99.90;;;;;;6281546;22;20209;-82
2023/12/20 01:54:02;;;;;;;10.00;2.10;;;6.00;99.90;;;;;;6309289;22;20148;-84
2023/12/20 01:56:28;;;;;;;8.90;2.60;;;6.00;99.90;;;;;;6308819;22;20187;-84
2023/12/20 01:58:57;;;;;;;7.23;1.80;;;5.90;99.90;;;;;;6281962;22;20156;-83
2023/12/20 02:01:22;;;;;;;17.47;2.30;;;5.90;99.90;;;;;;6280996;22;20148;-83
2023/12/20 02:03:49;;;;;;;9.47;2.20;;;5.90;99.90;;;;;;6281189;22;20156;-83
2023/12/20 02:06:15;;;;;;;8.43;2.17;;;5.90;99.90;;;;;;6282018;22;20163;-82
2023/12/20 02:08:42;;;;;;;9.80;2.33;;;5.90;99.90;;;;;;6282465;22;20624;-84
2023/12/20 02:11:08;;;;;;;13.63;2.30;;;5.90;99.90;;;;;;6282378;22;20202;-83
2023/12/20 02:13:33;;;;;;;15.57;2.27;;;5.90;99.90;;;;;;6282900;22;20156;-84
2023/12/20 02:16:00;;;;;;;11.67;2.10;;;5.80;99.90;;;;;;6282677;22;20542;-84
2023/12/20 02:18:26;;;;;;;7.93;2.43;;;5.80;99.90;;;;;;6310209;22;20144;-84
2023/12/20 02:20:52;;;;;;;11.40;2.90;;;5.80;99.90;;;;;;6310057;22;20471;-83
2023/12/20 02:23:18;;;;;;;10.60;3.00;;;5.80;99.90;;;;;;6282832;22;20152;-84
2023/12/20 02:25:44;;;;;;;11.20;2.40;;;5.80;99.90;;;;;;6291625;22;20202;-82
2023/12/20 02:28:10;;;;;;;14.20;3.20;;;5.80;99.90;;;;;;6308216;22;20162;-83
2023/12/20 02:30:35;;;;;;;12.43;2.63;;;5.80;99.90;;;;;;6308147;22;20605;-83
2023/12/20 02:33:03;;;;;;;8.57;3.07;;;5.90;99.90;;;;;;6308486;22;20198;-84
2023/12/20 02:35:29;;;;;;;10.77;2.83;;;5.80;99.90;;;;;;6308138;22;20159;-84
2023/12/20 02:37:55;;;;;;;14.37;3.00;;;5.90;99.90;;;;;;6310008;22;20152;-85
2023/12/20 02:40:27;;;;;;;8.17;3.00;;;5.80;99.90;;;;;;6308203;22;20163;-83
2023/12/20 02:42:52;;;;;;;7.73;2.07;;;5.80;99.90;;;;;;6308152;22;20159;-83
2023/12/20 02:45:18;;;;;;;11.20;2.53;;;5.70;99.90;;;;;;6308190;22;20219;-84
2023/12/20 02:47:44;;;;;;;8.53;2.30;;;5.70;99.90;;;;;;6308452;22;20166;-83
2023/12/20 02:50:10;;;;;;;12.97;2.20;;;5.70;99.90;;;;;;6309495;22;20574;-85
2023/12/20 02:52:35;;;;;;;11.83;2.50;;;5.70;99.90;;;;;;6308056;22;20152;-83
2023/12/20 02:55:01;;;;;;;8.67;2.27;;;5.60;99.90;;;;;;6308371;22;20191;-84
2023/12/20 02:57:27;;;;;;;10.10;2.23;;;5.60;99.90;;;;;;6307633;22;20187;-83
2023/12/20 02:59:52;;;;;;;11.47;2.57;;;5.40;99.90;;;;;;6308279;22;20156;-85
2023/12/20 03:02:18;;;;;;;7.60;2.03;;;5.40;99.90;;;;;;6308084;22;20144;-83
2023/12/20 03:04:44;;;;;;;10.40;1.87;;;5.30;99.90;;;;;;6309649;22;20201;-83
2023/12/20 03:07:11;;;;;;;9.77;2.10;;;5.30;99.90;;;;;;6308040;22;20213;-84
2023/12/20 03:09:37;;;;;;;8.87;2.03;;;5.20;99.90;;;;;;6308159;22;20152;-84
2023/12/20 03:12:04;;;;;;;10.63;2.07;;;5.30;99.90;;;;;;6308064;22;20159;-83
2023/12/20 03:14:29;;;;;;;9.90;2.00;;;5.20;99.90;;;;;;6308685;22;20151;-83
2023/12/20 03:16:55;;;;;;;9.77;2.50;;;5.20;99.90;;;;;;6307891;22;20632;-84
2023/12/20 03:19:23;;;;;;;7.33;1.97;;;5.20;99.90;;;;;;6308505;22;20156;-84
2023/12/20 03:21:49;;;;;;;14.13;2.30;;;5.20;99.90;;;;;;6308046;22;20148;-83
2023/12/20 03:24:15;;;;;;;12.30;2.47;;;5.20;99.90;;;;;;6308074;22;20179;-85
2023/12/20 03:26:40;;;;;;;11.20;2.20;;;5.20;99.90;;;;;;6308852;22;20256;-84
2023/12/20 03:29:10;;;;;;;7.43;1.87;;;5.10;99.90;;;;;;6281920;22;20162;-82
2023/12/20 03:31:36;;;;;;;7.30;2.13;;;5.10;99.90;;;;;;6282040;22;20155;-83
2023/12/20 03:34:02;;;;;;;13.87;2.60;;;5.20;99.90;;;;;;6282235;22;20171;-84
2023/12/20 03:36:28;;;;;;;12.13;2.70;;;5.20;99.90;;;;;;6281685;22;20188;-83
2023/12/20 03:38:54;;;;;;;10.03;3.07;;;5.20;99.90;;;;;;6309191;22;20151;-84
2023/12/20 03:41:19;;;;;;;10.00;2.80;;;5.20;99.90;;;;;;6282041;22;20467;-84
2023/12/20 03:43:45;;;;;;;7.70;2.60;;;5.20;99.90;;;;;;6282025;22;20159;-83
2023/12/20 03:46:11;;;;;;;15.93;3.43;;;5.10;99.90;;;;;;6281436;22;20183;-83
2023/12/20 03:48:37;;;;;;;10.73;2.80;;;5.10;99.90;;;;;;6281348;22;20159;-83
2023/12/20 03:51:06;;;;;;;17.23;3.00;;;5.10;99.90;;;;;;6281823;22;20187;-84
2023/12/20 03:53:32;;;;;;;12.80;3.00;;;5.10;99.90;;;;;;6281685;22;20155;-82
2023/12/20 03:55:57;;;;;;;8.90;2.40;;;5.10;99.90;;;;;;6307526;22;20180;-84
2023/12/20 03:58:23;;;;;;;11.83;2.63;;;5.00;99.90;;;;;;6280696;22;20242;-82
2023/12/20 04:00:49;;;;;;;17.80;3.50;;;5.00;99.90;;;;;;6280610;22;20159;-83
2023/12/20 04:03:15;;;;;;;8.17;2.40;;;4.90;99.90;;;;;;6308706;22;20440;-82
2023/12/20 04:05:41;;;;;;;15.33;3.07;;;4.90;99.90;;;;;;6281500;22;20152;-83
2023/12/20 04:08:07;;;;;;;10.10;2.40;;;4.90;99.90;;;;;;6281245;22;20458;-82
2023/12/20 04:10:34;;;;;;;14.70;2.60;;;4.80;99.90;;;;;;6280031;22;20160;-82
2023/12/20 04:13:00;;;;;;;10.37;2.40;;;4.80;99.90;;;;;;6280933;22;20178;-84
2023/12/20 04:15:25;;;;;;;7.67;1.80;;;4.80;99.90;;;;;;6281185;22;20567;-83
2023/12/20 04:17:51;;;;;;;9.90;2.20;;;4.80;99.90;;;;;;6281585;22;20195;-83
2023/12/20 04:20:17;;;;;;;9.30;2.13;;;4.80;99.90;;;;;;6281349;22;20156;-83
2023/12/20 04:22:43;;;;;;;14.10;2.07;;;4.80;99.90;;;;;;6308099;22;20140;-81
2023/12/20 04:25:08;;;;;;;10.33;1.90;;;4.80;99.90;;;;;;6281815;22;20267;-83
2023/12/20 04:27:35;;;;;;;5.30;1.40;;;4.80;99.90;;;;;;6306879;22;20152;-84
2023/12/20 04:30:01;;;;;;;5.33;1.27;;;4.80;99.90;;;;;;6307151;22;20171;-83
2023/12/20 04:32:26;;;;;;;12.60;1.83;;;4.80;99.90;;;;;;6306474;22;20439;-83
2023/12/20 04:34:52;;;;;;;10.37;2.10;;;4.80;99.90;;;;;;6306168;22;20571;-83
2023/12/20 04:37:18;;;;;;;7.37;1.93;;;4.80;99.90;;;;;;6306092;22;20187;-82
2023/12/20 04:39:45;;;;;;;10.47;1.80;;;4.80;99.90;;;;;;6306754;22;20479;-83
2023/12/20 04:42:11;;;;;;;9.77;1.40;;;4.70;99.90;;;;;;6306822;22;20238;-83
2023/12/20 04:44:36;;;;;;;8.57;1.87;;;4.70;99.90;;;;;;6307464;22;20567;-83
2023/12/20 04:47:03;;;;;;;9.10;1.67;;;4.80;99.90;;;;;;6307154;22;20152;-83
2023/12/20 04:49:28;;;;;;;8.47;1.83;;;4.80;99.90;;;;;;6307220;22;20156;-83
2023/12/20 04:51:55;;;;;;;10.63;1.67;;;4.80;99.90;;;;;;6306443;22;20183;-82
2023/12/20 04:54:21;;;;;;;4.37;1.47;;;4.80;99.90;;;;;;6308410;22;20447;-83
2023/12/20 04:56:47;;;;;;;7.73;1.90;;;4.80;99.90;;;;;;6306195;22;20219;-83
2023/12/20 04:59:13;;;;;;;9.23;1.70;;;4.80;99.90;;;;;;6308312;22;20154;-82
2023/12/20 05:01:39;;;;;;;12.17;2.17;;;4.80;99.90;;;;;;6307422;22;20163;-83
2023/12/20 05:04:05;;;;;;;10.37;2.63;;;4.90;99.90;;;;;;6308436;22;20160;-83
2023/12/20 05:06:30;;;;;;;9.77;1.73;;;4.90;99.90;;;;;;6308464;22;20216;-84
2023/12/20 05:08:56;;;;;;;10.67;1.60;;;4.90;99.90;;;;;;6308705;22;20515;-83
2023/12/20 05:11:23;;;;;;;8.43;1.40;;;4.90;99.90;;;;;;6308001;22;20155;-83
2023/12/20 05:13:49;;;;;;;12.07;2.43;;;5.00;99.90;;;;;;6307619;22;20159;-83
2023/12/20 05:16:17;;;;;;;10.00;1.57;;;5.00;99.90;;;;;;6307568;22;20245;-84
2023/12/20 05:18:43;;;;;;;8.23;1.40;;;5.00;99.90;;;;;;6309043;22;20152;-84
2023/12/20 05:21:11;;;;;;;13.57;2.03;;;5.00;99.90;;;;;;6308535;22;20163;-84
2023/12/20 05:23:37;;;;;;;13.33;1.53;;;5.10;99.90;;;;;;6308654;22;20179;-84
2023/12/20 05:26:03;;;;;;;7.70;1.50;;;5.20;99.90;;;;;;6306144;22;20211;-84
2023/12/20 05:28:29;;;;;;;6.97;1.83;;;5.20;99.90;;;;;;6307120;22;20160;-84
2023/12/20 05:30:55;;;;;;;8.43;1.37;;;5.20;99.90;;;;;;6308406;22;20163;-83
2023/12/20 05:33:21;;;;;;;8.53;1.70;;;5.30;99.90;;;;;;6309188;22;20231;-86
2023/12/20 05:35:47;;;;;;;10.03;1.63;;;5.30;99.90;;;;;;6308868;22;20183;-82
2023/12/20 05:38:13;;;;;;;6.20;1.87;;;5.30;99.90;;;;;;6309266;22;20167;-84
2023/12/20 05:40:39;;;;;;;10.67;1.90;;;5.30;99.90;;;;;;6308841;22;20163;-87
2023/12/20 05:43:04;;;;;;;13.13;1.73;;;5.30;99.90;;;;;;6309487;22;20237;-84
2023/12/20 05:45:30;;;;;;;8.93;1.63;;;5.40;99.90;;;;;;6309035;22;20167;-83
2023/12/20 05:47:56;;;;;;;9.90;1.70;;;5.40;99.90;;;;;;6309088;22;20235;-83
2023/12/20 05:50:22;;;;;;;11.37;2.20;;;5.40;99.90;;;;;;6309090;22;20180;-84
2023/12/20 05:52:47;;;;;;;11.73;1.90;;;5.40;99.90;;;;;;6308647;22;20179;-85
2023/12/20 05:55:13;;;;;;;11.53;1.87;;;5.40;99.90;;;;;;6310340;22;20170;-87
2023/12/20 05:57:39;;;;;;;7.97;1.67;;;5.50;99.90;;;;;;6309956;22;20179;-84
2023/12/20 06:00:06;;;;;;;8.40;1.73;;;5.40;99.90;;;;;;6308638;22;20159;-87
2023/12/20 06:02:39;;;;;;;11.20;1.73;;;5.50;99.90;;;;;;6308198;22;20156;-84
2023/12/20 06:05:05;;;;;;;12.73;2.27;;;5.50;99.90;;;;;;6308879;22;20156;-85
2023/12/20 06:07:31;;;;;;;6.17;1.80;;;5.50;99.90;;;;;;6308856;22;20197;-86
2023/12/20 06:09:57;;;;;;;7.77;1.80;;;5.50;99.90;;;;;;6308725;22;20163;-86
2023/12/20 06:12:23;;;;;;;6.43;1.40;;;5.50;99.90;;;;;;6308586;22;20152;-85
2023/12/20 06:14:48;;;;;;;8.80;1.93;;;5.50;99.90;;;;;;6308886;22;20156;-87
2023/12/20 06:17:15;;;;;;;9.47;2.47;;;5.50;99.90;;;;;;6308791;22;20191;-85
2023/12/20 06:19:42;;;;;;;7.53;1.73;;;5.60;99.90;;;;;;6308740;22;20164;-84
2023/12/20 06:22:09;;;;;;;17.93;2.40;;;5.60;99.90;;;;;;6308776;22;20160;-86
2023/12/20 06:24:39;;;;;;;12.07;2.17;;;5.60;99.90;;;;;;6308518;22;20575;-84
2023/12/20 06:27:04;;;;;;;12.20;2.37;;;5.60;99.90;;;;;;6282140;22;20200;-85
2023/12/20 06:29:31;;;;;;;12.17;2.47;;;5.60;99.90;;;;;;6310356;22;20152;-86
2023/12/20 06:31:57;;;;;;;14.27;2.13;;;5.60;99.90;;;;;;6282669;22;20167;-87
2023/12/20 06:34:23;;;;;;;16.00;2.67;;;5.60;99.90;;;;;;6282787;22;20152;-85
2023/12/20 06:36:49;;;;;;;15.87;3.00;;;5.70;99.90;;;;;;6282432;22;20227;-85
2023/12/20 06:39:15;;;;;;;7.83;1.80;;;5.70;99.90;;;;;;6282877;22;20172;-84
2023/12/20 06:41:41;;;;;;;11.40;2.10;;;5.70;99.90;;;;;;6282678;22;20187;-85
2023/12/20 06:44:06;;;;;;;13.53;2.83;;;5.70;99.90;;;;;;6282999;22;20150;-87
2023/12/20 06:46:32;;;;;;;15.20;2.20;;;5.70;99.90;;;;;;6282441;22;20156;-89
2023/12/20 06:48:58;;;;;;;19.50;2.57;;;5.80;99.90;;;;;;6282582;22;20156;-91
2023/12/20 06:51:30;;;;;;;11.47;2.77;;;5.90;99.90;;;;;;6309893;22;20574;-87
2023/12/20 06:53:56;;;;;;;13.70;2.87;;;5.90;99.90;;;;;;6282721;22;20458;-91
2023/12/20 06:56:22;;;;;;;10.67;2.60;;;5.80;99.90;;;;;;6281874;22;20183;-87
2023/12/20 06:58:48;;;;;;;15.03;2.57;;;5.80;99.90;;;;;;6282655;22;20159;-86
2023/12/20 07:01:14;;;;;;;10.70;2.30;;;5.80;99.90;;;;;;6282556;22;20497;-88
2023/12/20 07:03:41;;;;;;;14.47;2.37;;;5.80;99.90;;;;;;6282389;22;20179;-90
2023/12/20 07:06:07;;;;;;;12.83;2.90;;;5.80;99.90;;;;;;6282577;22;20160;-88
2023/12/20 07:08:33;;;;;;;14.30;3.00;;;5.80;99.90;;;;;;6282631;22;20246;-89
2023/12/20 07:10:59;;;;;;;13.87;2.90;;;5.80;99.90;;;;;;6309430;22;20217;-88
2023/12/20 07:13:26;;;;;;;11.40;2.10;;;5.80;99.90;;;;;;6309593;22;20140;-84
2023/12/20 07:15:52;;;;;;;15.27;3.07;;;5.80;99.90;;;;;;6282028;22;20210;-85
2023/12/20 07:18:17;;;;;;;11.63;2.90;;;5.70;99.90;;;;;;6282297;22;20163;-84
2023/12/20 07:20:43;;;;;;;12.23;2.47;;;5.80;99.90;;;;;;6282089;22;20156;-83
2023/12/20 07:23:09;;;;;;;13.80;2.80;;;5.90;99.90;;;;;;6281945;22;20533;-85
2023/12/20 07:25:35;;;;;;;13.03;2.67;;;5.80;99.90;;;;;;6288876;22;20196;-85
2023/12/20 07:28:01;;;;;;;11.93;2.53;;;5.80;99.90;;;;;;6308125;22;20167;-86
2023/12/20 07:30:26;;;;;;;13.80;2.90;;;5.80;99.90;;;;;;6308175;22;20152;-84
2023/12/20 07:32:53;;;;;;;10.47;2.33;;;5.80;99.90;;;;;;6308514;22;20159;-85
2023/12/20 07:35:19;;;;;;;10.30;2.53;;;5.80;99.90;;;;;;6308206;22;20159;-85
2023/12/20 07:37:45;;;;;;;11.23;2.83;;;5.90;99.90;;;;;;6308117;22;20184;-86
2023/12/20 07:40:11;;;;;;;12.03;2.17;;;5.90;99.90;;;;;;6308276;22;20162;-85
2023/12/20 07:42:36;;;;;;;13.57;2.50;;;5.90;99.90;;;;;;6307718;22;20159;-87
2023/12/20 07:45:03;;;;;;;13.73;2.80;;;5.90;99.90;;;;;;6308115;22;20201;-85
2023/12/20 07:47:29;;;;;;;16.57;3.03;;;5.90;99.90;;;;;;6307642;22;20160;-86
2023/12/20 07:49:54;;;;;;;15.33;2.97;;;5.90;99.90;;;;;;6308310;22;20532;-85
2023/12/20 07:52:22;;;;;;;12.67;2.83;;;5.90;99.90;;;;;;6307666;22;20213;-85
2023/12/20 07:54:48;;;;;;;13.73;3.10;;;5.90;99.90;;;;;;6308120;22;20147;-85
2023/12/20 07:57:13;;;;;;;11.33;2.53;;;5.80;99.90;;;;;;6307501;22;20194;-86
2023/12/20 07:59:44;;;;;;;13.17;2.47;;;5.80;99.90;;;;;;6307455;22;20148;-83
2023/12/20 08:02:12;;;;;;;12.47;2.83;;;5.80;99.90;;;;;;6307540;22;20151;-83
2023/12/20 08:04:38;;;;;;;14.17;2.17;;;5.90;99.90;;;;;;6307333;22;20194;-84
2023/12/20 08:07:04;;;;;;;10.27;2.53;;;5.80;99.90;;;;;;6308040;22;20156;-85
2023/12/20 08:09:34;;;;;;;12.87;2.70;;;5.80;99.90;;;;;;6307607;22;20156;-86
2023/12/20 08:12:00;;;;;;;11.30;2.67;;;5.80;99.90;;;;;;6307421;22;20180;-85
2023/12/20 08:14:25;;;;;;;15.63;2.13;;;5.70;99.90;;;;;;6307498;22;20226;-83
2023/12/20 08:16:51;;;;;;;11.93;2.50;;;5.80;99.90;;;;;;6307362;22;20187;-86
2023/12/20 08:19:17;;;;;;;13.30;2.43;;;5.70;99.90;;;;;;6307719;22;20281;-85
2023/12/20 08:21:43;;;;;;;11.93;2.70;;;5.70;99.90;;;;;;6308000;22;20310;-87
2023/12/20 08:24:11;;;;;;;11.57;2.60;;;5.80;99.90;;;;;;6308000;22;20179;-84
2023/12/20 08:26:36;;;;;;;10.10;2.80;;;5.80;99.90;;;;;;6308917;22;20622;-83
2023/12/20 08:29:02;;;;;;;14.37;2.30;;;5.80;99.90;;;;;;6281842;22;20159;-85
2023/12/20 08:31:28;;;;;;;14.67;3.07;;;5.90;99.90;;;;;;6309098;22;20155;-85
2023/12/20 08:33:54;;;;;;;13.07;2.60;;;5.80;99.90;;;;;;6283346;22;20183;-86
2023/12/20 08:36:22;;;;;;;13.47;3.20;;;5.80;99.90;;;;;;6283428;22;20180;-86
2023/12/20 08:38:48;;;;;;;12.20;2.70;;;5.90;99.90;;;;;;6283342;22;20163;-85
2023/12/20 08:41:14;;;;;;;12.53;2.87;;;6.00;99.90;;;;;;6283560;22;20152;-84
2023/12/20 08:43:40;;;;;;;15.73;2.57;;;5.90;99.90;;;;;;6283442;22;20567;-85
2023/12/20 08:46:06;;;;;;;14.80;3.33;;;5.90;99.90;;;;;;6283007;22;20152;-84
2023/12/20 08:48:32;;;;;;;13.40;2.73;;;5.90;99.90;;;;;;6283420;22;20202;-85
2023/12/20 08:50:58;;;;;;;11.13;2.27;;;5.90;99.90;;;;;;6283446;22;20240;-85
2023/12/20 08:53:33;;;;;;;15.57;2.63;;;5.90;99.90;;;;;;6283600;22;20152;-86
2023/12/20 08:56:01;;;;;;;11.83;2.37;;;6.00;99.90;;;;;;6283471;22;20210;-85
2023/12/20 08:58:27;;;;;;;7.37;2.27;;;5.90;99.90;;;;;;6310849;22;20491;-84
2023/12/20 09:00:53;;;;;;;8.73;2.40;;;5.90;99.90;;;;;;6283958;22;20152;-85
2023/12/20 09:03:21;;;;;;;15.87;2.67;;;6.00;99.90;;;;;;6283529;22;20217;-85
2023/12/20 09:05:47;;;;;;;13.60;3.03;;;6.00;99.90;;;;;;6283088;22;20148;-83
2023/12/20 09:08:12;;;;;;;12.70;2.33;;;6.00;99.90;;;;;;6283451;22;20159;-84
2023/12/20 09:10:38;;;;;;;12.27;2.93;;;6.00;99.90;;;;;;6282949;22;20163;-82
2023/12/20 09:13:04;;;;;;;14.90;2.90;;;6.00;99.90;;;;;;6283037;22;20482;-83
2023/12/20 09:15:30;;;;;;;10.23;2.80;;;6.00;99.90;;;;;;6283068;22;20148;-83
2023/12/20 09:17:56;;;;;;;13.93;3.23;;;6.10;99.90;;;;;;6283016;22;20188;-83
2023/12/20 09:20:23;;;;;;;11.90;2.83;;;6.10;99.90;;;;;;6310596;22;20151;-82
2023/12/20 09:22:49;;;;;;;16.13;2.87;;;6.10;99.90;;;;;;6283131;22;20567;-84
2023/12/20 09:25:16;;;;;;;13.10;3.33;;;6.10;99.90;;;;;;6284455;22;20195;-85
2023/12/20 09:27:42;;;;;;;12.13;3.20;;;6.10;99.90;;;;;;6308826;22;20159;-84
2023/12/20 09:30:09;;;;;;;13.10;3.00;;;6.20;99.90;;;;;;6309271;22;20155;-83
2023/12/20 09:32:35;;;;;;;18.40;3.13;;;6.20;99.90;;;;;;6308872;22;20156;-84
2023/12/20 09:35:03;;;;;;;13.47;2.77;;;6.20;99.90;;;;;;6309134;22;20471;-85
2023/12/20 09:37:29;;;;;;;21.20;3.63;;;6.20;99.90;;;;;;6308492;22;20607;-88
2023/12/20 09:39:55;;;;;;;15.40;3.80;;;6.20;99.90;;;;;;6308966;22;20190;-84
2023/12/20 09:42:51;;;;;;;9.93;2.83;;;6.30;99.90;;;;;;6308682;22;20254;-86
2023/12/20 09:45:23;;;;;;;13.47;3.00;;;6.20;99.90;;;;;;6284892;22;20152;-85
2023/12/20 09:47:51;;;;;;;11.90;3.17;;;6.30;99.90;;;;;;6308993;22;20172;-83
2023/12/20 09:50:19;;;;;;;11.13;2.87;;;6.30;99.90;;;;;;6310736;22;20223;-86
2023/12/20 09:52:59;;;;;;;13.83;3.07;;;6.30;99.90;;;;;;6308420;22;20155;-84
2023/12/20 09:55:30;;;;;;;12.93;3.37;;;6.20;99.90;;;;;;6310314;22;20155;-83
2023/12/20 09:57:56;;;;;;;18.30;3.13;;;6.30;99.90;;;;;;6309775;22;20179;-84
2023/12/20 10:00:22;;;;;;;15.23;3.30;;;6.20;99.90;;;;;;6309208;22;20466;-85
2023/12/20 10:02:59;;;;;;;18.03;3.73;;;6.30;99.90;;;;;;6309721;22;20236;-84
2023/12/20 10:05:31;;;;;;;14.10;3.20;;;6.20;99.90;;;;;;6308207;22;20168;-87
2023/12/20 10:07:57;;;;;;;11.97;2.90;;;6.20;99.90;;;;;;6308745;22;20148;-85
2023/12/20 10:10:24;;;;;;;10.80;3.37;;;6.20;99.90;;;;;;6308910;22;20163;-85
2023/12/20 10:13:11;;;;;;;6.93;2.57;;;6.20;99.90;;;;;;6308433;22;20156;-83
2023/12/20 10:15:38;;;;;;;12.97;3.40;;;6.30;99.90;;;;;;6308156;22;20167;-84
2023/12/20 10:18:04;;;;;;;12.33;3.63;;;6.20;99.90;;;;;;6308493;22;20207;-87
2023/12/20 10:20:31;;;;;;;11.80;2.83;;;6.30;99.90;;;;;;6309983;22;20171;-85
2023/12/20 10:22:58;;;;;;;7.10;2.33;;;6.30;99.90;;;;;;6308729;22;20156;-86
2023/12/20 10:25:25;;;;;;;8.73;2.73;;;6.30;99.90;;;;;;6308122;22;20196;-83
2023/12/20 10:28:08;;;;;;;12.40;2.73;;;6.40;99.90;;;;;;6308204;22;20704;-84
2023/12/20 10:30:34;;;;;;;10.03;2.83;;;6.40;99.90;;;;;;6307973;22;20156;-85
2023/12/20 10:33:00;;;;;;;9.63;2.50;;;6.40;99.90;;;;;;6308128;22;20160;-84
2023/12/20 10:35:25;;;;;;;10.77;2.40;;;6.50;99.90;;;;;;6307897;22;20460;-84
2023/12/20 10:37:59;;;;;;;10.83;2.70;;;6.70;99.90;;;;;;6307728;22;20194;-83
2023/12/20 10:40:29;;;;;;;10.90;3.07;;;6.70;99.90;;;;;;6309714;22;20148;-84
2023/12/20 10:42:56;;;;;;;15.80;3.73;;;6.70;99.90;;;;;;6308658;22;20144;-84
2023/12/20 10:45:23;;;;;;;13.30;2.87;;;6.60;99.90;;;;;;6308216;22;20184;-86
2023/12/20 10:47:55;;;;;;;13.63;3.00;;;6.50;99.90;;;;;;6309813;22;20147;-85
2023/12/20 10:50:21;;;;;;;13.13;2.80;;;6.40;99.90;;;;;;6309957;22;20195;-87
2023/12/20 10:52:48;;;;;;;14.73;2.67;;;6.40;99.90;;;;;;6310115;22;20230;-89
2023/12/20 10:55:14;;;;;;;14.67;3.47;;;6.30;99.90;;;;;;6310169;22;20151;-84
2023/12/20 10:57:41;;;;;;;10.57;2.50;;;6.40;99.90;;;;;;6308235;22;20184;-84
2023/12/20 11:00:12;;;;;;;17.70;2.60;;;6.40;99.90;;;;;;6308392;22;20152;-85
2023/12/20 11:02:40;;;;;;;16.07;3.07;;;6.50;99.90;;;;;;6308082;22;20217;-82
2023/12/20 11:05:33;;;;;;;11.27;2.90;;;6.50;99.90;;;;;;6307813;22;20213;-84
2023/12/20 11:08:23;;;;;;;11.03;2.40;;;6.60;99.90;;;;;;6307665;22;20172;-84
2023/12/20 11:11:06;;;;;;;10.73;2.50;;;6.60;99.90;;;;;;6305735;22;20156;-82
2023/12/20 11:13:37;;;;;;;13.60;3.10;;;6.70;99.90;;;;;;6308764;22;20146;-84
2023/12/20 11:16:03;;;;;;;11.03;2.43;;;6.70;99.90;;;;;;6308866;22;20175;-84
2023/12/20 11:18:30;;;;;;;17.90;2.83;;;6.70;99.90;;;;;;6307776;22;20464;-83
2023/12/20 11:21:10;;;;;;;13.20;3.00;;;6.80;99.90;;;;;;6307735;22;20155;-84
2023/12/20 11:23:36;;;;;;;10.13;2.57;;;6.80;99.90;;;;;;6307734;22;20454;-84
2023/12/20 11:26:03;;;;;;;14.40;2.70;;;6.80;99.90;;;;;;6306981;22;20282;-84
2023/12/20 11:28:32;;;;;;;7.53;2.10;;;6.80;99.90;;;;;;6307253;22;20187;-84
2023/12/20 11:31:00;;;;;;;9.80;2.60;;;6.70;99.90;;;;;;6308117;22;20291;-81
2023/12/20 11:33:31;;;;;;;11.87;2.53;;;6.70;99.90;;;;;;6311375;22;20156;-88
2023/12/20 11:36:00;;;;;;;10.87;2.77;;;6.70;99.90;;;;;;6309009;22;20497;-83
2023/12/20 11:38:26;;;;;;;10.33;2.73;;;6.70;99.90;;;;;;6307448;22;20148;-85
2023/12/20 11:40:55;;;;;;;13.90;2.57;;;6.70;99.90;;;;;;6307759;22;20507;-84
2023/12/20 11:43:36;;;;;;;12.37;2.80;;;6.70;99.90;;;;;;6307277;22;20198;-85
2023/12/20 11:46:09;;;;;;;7.57;2.23;;;6.80;99.90;;;;;;6307414;22;20156;-86
2023/12/20 11:48:38;;;;;;;9.67;2.33;;;6.80;99.90;;;;;;6307638;22;20213;-84
2023/12/20 11:51:12;;;;;;;10.37;2.30;;;6.80;99.90;;;;;;6306949;22;20187;-86
2023/12/20 11:53:39;;;;;;;11.13;2.70;;;6.80;99.90;;;;;;6307108;22;20154;-84
2023/12/20 11:56:12;;;;;;;11.20;3.30;;;6.70;99.90;;;;;;6307463;22;20187;-86
2023/12/20 11:58:38;;;;;;;10.13;2.53;;;6.80;99.90;;;;;;6307303;22;20152;-85
2023/12/20 12:01:07;;;;;;;11.63;2.80;;;6.70;99.90;;;;;;6307410;22;20548;-84
2023/12/20 12:03:33;;;;;;;11.17;2.10;;;6.70;99.90;;;;;;6307543;22;20512;-83
2023/12/20 12:06:05;;;;;;;8.90;2.27;;;6.70;99.90;;;;;;6307701;22;20155;-85
2023/12/20 12:08:31;;;;;;;5.10;1.70;;;6.80;99.90;;;;;;6308695;22;20206;-84
2023/12/20 12:10:57;;;;;;;6.60;1.50;;;6.70;99.90;;;;;;6309271;22;20571;-83
2023/12/20 12:13:23;;;;;;;3.53;1.43;;;6.70;99.90;;;;;;6309500;22;20167;-83
2023/12/20 12:15:50;;;;;;;7.67;2.20;;;6.70;99.90;;;;;;6309018;22;20160;-84
2023/12/20 12:18:17;;;;;;;3.90;1.30;;;6.70;99.90;;;;;;6309840;22;20156;-83
2023/12/20 12:20:43;;;;;;;0.97;0.70;;;6.60;99.90;;;;;;6306867;22;20186;-84
2023/12/20 12:23:08;;;;;;;4.80;1.07;;;6.30;99.90;;;;;;6309497;22;20157;-83
2023/12/20 12:25:37;;;;;;;2.93;0.90;;;6.10;99.90;;;;;;6309046;22;20252;-84
2023/12/20 12:28:03;;;;;;;3.13;0.60;;;6.00;99.90;;;;;;6308899;22;20235;-84
2023/12/20 12:30:29;;;;;;;3.23;0.67;;;5.90;99.90;;;;;;6309031;22;20241;-82
2023/12/20 12:32:57;;;;;;;2.10;0.80;;;5.80;99.90;;;;;;6308352;22;20156;-82
2023/12/20 12:35:23;;;;;;;5.03;1.00;;;5.70;99.90;;;;;;6308784;22;20156;-83
2023/12/20 12:37:51;;;;;;;4.50;0.73;;;5.70;99.90;;;;;;6304385;22;20192;-81
2023/12/20 12:40:18;;;;;;;1.93;0.60;;;5.50;99.90;;;;;;6309676;22;20148;-82
2023/12/20 12:42:45;;;;;;;8.17;1.43;;;5.50;99.90;;;;;;6308352;22;20209;-83
2023/12/20 12:45:11;;;;;;;7.43;1.43;;;5.60;99.90;;;;;;6307535;22;20152;-83
2023/12/20 12:47:38;;;;;;;4.50;1.10;;;5.60;99.90;;;;;;6310001;22;20726;-83
2023/12/20 12:50:04;;;;;;;5.30;1.20;;;5.60;99.90;;;;;;6308464;22;20144;-82